Time;durP1;ratioP1;P1;durP2;ratioP2;P2;SDS_P1;SDS_P2;PMS_P1;PMS_P2;Temp;Humidity;BMP_temperature;BMP_pressure;BME280_temperature;BME280_humidity;BME280_pressure;Samples;Min_cycle;Max_cycle;Signal;HPM_P1;HPM_P2
2022/04/23 00:01:44;;;;;;;22.77;7.08;;;;;;;13.76;60.73;101191.68;1578514;91;21093;-65
2022/04/23 00:04:12;;;;;;;26.90;6.92;;;;;;;13.73;60.71;101187.83;1579638;89;21073;-65
2022/04/23 00:06:40;;;;;;;21.17;6.45;;;;;;;13.72;60.78;101193.50;1579772;89;21013;-65
2022/04/23 00:09:08;;;;;;;17.00;6.75;;;;;;;13.64;61.05;101194.16;1579554;89;21101;-66
2022/04/23 00:11:36;;;;;;;21.65;8.33;;;;;;;13.62;61.12;101196.44;1579782;89;21049;-66
2022/04/23 00:14:05;;;;;;;21.80;7.35;;;;;;;13.67;60.97;101203.69;1579514;89;21570;-65
2022/04/23 00:16:33;;;;;;;21.60;7.08;;;;;;;13.68;60.98;101222.42;1579443;89;21078;-66
2022/04/23 00:19:01;;;;;;;21.17;6.70;;;;;;;13.70;61.04;101208.85;1579765;89;21115;-66
2022/04/23 00:21:29;;;;;;;22.32;7.03;;;;;;;13.73;60.99;101198.29;1579464;89;21108;-66
2022/04/23 00:23:57;;;;;;;16.85;6.60;;;;;;;13.73;60.88;101195.67;1579654;89;21602;-65
2022/04/23 00:26:25;;;;;;;24.10;7.00;;;;;;;13.73;60.90;101190.44;1579521;89;21133;-65
2022/04/23 00:28:52;;;;;;;19.02;6.40;;;;;;;13.75;60.82;101191.26;1579815;89;21168;-65
2022/04/23 00:31:19;;;;;;;16.77;6.20;;;;;;;13.74;60.79;101192.17;1579941;89;21570;-66
2022/04/23 00:33:46;;;;;;;18.37;6.45;;;;;;;13.75;60.77;101193.88;1579782;91;21066;-65
2022/04/23 00:36:14;;;;;;;20.75;7.17;;;;;;;13.68;61.04;101213.27;1579542;91;21625;-65
2022/04/23 00:38:42;;;;;;;19.75;7.20;;;;;;;13.74;60.89;101217.02;1579808;89;21164;-66
2022/04/23 00:43:39;;;;;;;19.17;6.90;;;;;;;13.79;60.71;101217.73;1578216;89;21183;-66
2022/04/23 00:46:05;;;;;;;18.12;6.20;;;;;;;13.78;60.80;101206.87;1575019;91;21611;-65
2022/04/23 00:48:33;;;;;;;25.90;7.08;;;;;;;13.80;60.75;101210.31;1578077;89;21085;-66
2022/04/23 00:51:00;;;;;;;24.85;7.58;;;;;;;13.82;60.63;101215.05;1578150;89;21147;-66
2022/04/23 00:53:27;;;;;;;23.25;6.70;;;;;;;13.82;60.58;101209.38;1578257;89;21060;-65
2022/04/23 00:55:54;;;;;;;18.52;6.17;;;;;;;13.82;60.61;101204.59;1595245;87;21605;-65
2022/04/23 00:58:23;;;;;;;18.15;6.92;;;;;;;13.83;60.56;101195.82;1598444;88;21161;-65
2022/04/23 01:00:51;;;;;;;20.48;6.72;;;;;;;13.83;60.48;101176.20;1590146;89;21114;-66
2022/04/23 01:03:22;;;;;;;17.62;6.58;;;;;;;13.80;60.53;101175.00;1590206;90;21118;-65
2022/04/23 01:05:49;;;;;;;29.07;7.72;;;;;;;13.77;60.61;101172.45;1590189;89;21137;-65
2022/04/23 01:08:18;;;;;;;21.62;7.67;;;;;;;13.74;60.63;101170.81;1590336;89;21121;-65
2022/04/23 01:10:48;;;;;;;20.45;6.80;;;;;;;13.71;60.69;101173.94;1585555;89;21529;-65
2022/04/23 01:13:16;;;;;;;16.12;6.45;;;;;;;13.70;60.71;101167.01;1590188;89;21094;-65
2022/04/23 01:16:07;;;;;;;17.35;6.78;;;;;;;13.68;60.74;101153.12;1590339;89;21153;-66
2022/04/23 01:18:38;;;;;;;23.32;6.90;;;;;;;13.66;60.85;101147.08;1590589;89;21049;-66
2022/04/23 01:21:09;;;;;;;25.35;6.42;;;;;;;13.64;60.89;101143.64;1590078;89;21053;-65
2022/04/23 01:23:35;;;;;;;17.65;6.35;;;;;;;13.63;60.95;101134.07;1590236;89;21081;-65
2022/04/23 01:26:04;;;;;;;24.67;7.55;;;;;;;13.62;60.92;101121.44;1590460;89;21616;-65
2022/04/23 01:28:33;;;;;;;16.07;6.00;;;;;;;13.62;60.95;101113.59;1590530;89;21037;-66
2022/04/23 01:31:01;;;;;;;20.27;6.20;;;;;;;13.61;60.98;101113.64;1569149;90;21585;-66
2022/04/23 01:33:28;;;;;;;19.80;6.97;;;;;;;13.61;60.95;101134.56;1590174;89;21081;-65
2022/04/23 01:35:55;;;;;;;17.77;6.28;;;;;;;13.62;60.96;101141.05;1590300;89;21077;-65
2022/04/23 01:38:22;;;;;;;24.25;6.40;;;;;;;13.66;60.88;101134.00;1590329;89;21033;-65
2022/04/23 01:40:49;;;;;;;18.90;6.78;;;;;;;13.68;60.85;101134.81;1605403;89;21086;-66
2022/04/23 01:43:15;;;;;;;21.17;7.08;;;;;;;13.70;60.80;101130.40;1598684;87;21084;-65
2022/04/23 01:45:44;;;;;;;25.80;8.40;;;;;;;13.72;60.69;101123.36;1595323;87;21068;-65
2022/04/23 01:48:11;;;;;;;17.27;6.42;;;;;;;13.71;60.64;101111.17;1600828;87;21080;-66
2022/04/23 01:50:41;;;;;;;22.45;7.28;;;;;;;13.70;60.57;101114.70;1601356;87;21067;-66
2022/04/23 01:53:09;;;;;;;20.82;7.45;;;;;;;13.70;60.61;101112.09;1600707;87;21057;-65
2022/04/23 01:55:36;;;;;;;23.38;6.92;;;;;;;13.70;60.57;101106.39;1600847;87;21062;-65
2022/04/23 01:58:04;;;;;;;24.15;7.22;;;;;;;13.70;60.56;101115.53;1624331;87;21082;-65
2022/04/23 02:00:33;;;;;;;16.20;7.30;;;;;;;13.72;60.55;101114.21;1644213;85;21680;-65
2022/04/23 02:03:01;;;;;;;17.50;6.22;;;;;;;13.71;60.54;101104.19;1652759;87;21550;-66
2022/04/23 02:05:29;;;;;;;22.87;8.23;;;;;;;13.73;60.53;101100.22;1609036;87;21098;-65
2022/04/23 02:07:57;;;;;;;16.40;5.20;;;;;;;13.74;60.46;101111.97;1610347;87;21104;-66
2022/04/23 02:10:24;;;;;;;19.95;6.40;;;;;;;13.74;60.48;101100.64;1621547;87;21587;-65
2022/04/23 02:12:51;;;;;;;17.15;6.53;;;;;;;13.73;60.45;101084.52;1642042;85;21065;-65
2022/04/23 02:15:20;;;;;;;20.80;7.35;;;;;;;13.74;60.46;101082.33;1610039;88;21021;-65
2022/04/23 02:17:50;;;;;;;23.10;6.60;;;;;;;13.74;60.40;101089.73;1613466;88;21108;-65
2022/04/23 02:20:18;;;;;;;;;;;;;;;13.75;60.41;101087.95;1594684;88;21097;-65
2022/04/23 02:22:45;;;;;;;24.12;6.80;;;;;;;13.76;60.39;101100.14;1594009;88;20125;-65
2022/04/23 02:25:12;;;;;;;19.60;6.95;;;;;;;13.76;60.32;101104.06;1643158;85;21627;-65
2022/04/23 02:27:44;;;;;;;21.25;6.70;;;;;;;13.77;60.38;101097.91;1643398;85;21059;-65
2022/04/23 02:30:15;;;;;;;16.00;6.70;;;;;;;13.80;60.34;101097.40;1642585;85;21127;-65
2022/04/23 02:32:42;;;;;;;16.93;6.28;;;;;;;13.82;60.26;101094.73;1635618;86;21033;-66
2022/04/23 02:35:10;;;;;;;21.87;6.62;;;;;;;13.84;60.25;101096.84;1640776;86;21094;-66
2022/04/23 02:37:40;;;;;;;26.35;7.53;;;;;;;13.85;60.18;101094.63;1641229;87;21486;-65
2022/04/23 02:40:09;;;;;;;23.07;7.67;;;;;;;13.85;60.17;101090.70;1641024;86;21091;-66
2022/04/23 02:42:37;;;;;;;18.73;6.60;;;;;;;13.87;60.13;101083.66;1641079;86;21053;-66
2022/04/23 02:45:07;;;;;;;16.65;6.15;;;;;;;13.89;60.10;101071.39;1640749;86;21048;-66
2022/04/23 02:47:50;;;;;;;18.10;5.97;;;;;;;13.88;60.01;101069.70;1639465;86;21048;-66
2022/04/23 02:50:31;;;;;;;20.60;6.37;;;;;;;13.86;59.94;101066.27;1629154;86;21520;-65
2022/04/23 02:52:59;;;;;;;20.80;6.10;;;;;;;13.86;60.05;101068.88;1574538;91;21076;-66
2022/04/23 02:55:28;;;;;;;22.45;6.55;;;;;;;13.83;59.98;101059.80;1574329;91;21105;-66
2022/04/23 02:57:58;;;;;;;22.50;6.72;;;;;;;13.83;60.06;101076.80;1572413;90;21141;-66
2022/04/23 03:00:25;;;;;;;20.92;6.42;;;;;;;13.83;59.97;101093.37;1567630;91;21137;-66
2022/04/23 03:02:52;;;;;;;21.25;5.72;;;;;;;13.84;59.99;101113.84;1567813;90;21100;-63
2022/04/23 03:05:20;;;;;;;20.92;7.78;;;;;;;13.87;59.99;101111.13;1567972;91;21065;-64
2022/04/23 03:07:48;;;;;;;15.20;6.42;;;;;;;13.90;59.92;101103.20;1567417;90;21080;-64
2022/04/23 03:10:18;;;;;;;15.65;6.72;;;;;;;13.94;59.86;101112.67;1567710;91;22260;-66
2022/04/23 03:12:44;;;;;;;19.60;6.53;;;;;;;13.97;59.72;101106.05;1567958;90;21124;-64
2022/04/23 03:15:16;;;;;;;18.02;6.20;;;;;;;13.99;59.62;101117.33;1567785;91;21136;-66
2022/04/23 03:17:44;;;;;;;21.60;5.87;;;;;;;14.03;59.61;101125.94;1567932;91;21589;-66
2022/04/23 03:20:13;;;;;;;22.98;6.72;;;;;;;14.06;59.48;101124.52;1568030;91;21627;-66
2022/04/23 03:22:42;;;;;;;23.07;6.15;;;;;;;14.09;59.45;101121.83;1567774;91;21116;-66
2022/04/23 03:25:11;;;;;;;13.65;5.30;;;;;;;14.10;59.28;101124.39;1567986;90;21100;-66
2022/04/23 03:27:39;;;;;;;21.60;7.58;;;;;;;14.10;59.25;101102.14;1567735;90;21085;-66
2022/04/23 03:30:08;;;;;;;22.80;7.03;;;;;;;14.09;59.14;101107.44;1566999;91;21118;-66
2022/04/23 03:32:36;;;;;;;16.55;6.30;;;;;;;14.07;59.17;101099.64;1538180;93;21119;-65
2022/04/23 03:35:07;;;;;;;20.60;6.58;;;;;;;14.07;59.27;101104.01;1538400;92;21563;-63
2022/04/23 03:37:40;;;;;;;17.70;5.85;;;;;;;14.06;59.33;101095.29;1514301;95;21101;-66
2022/04/23 03:40:08;;;;;;;19.95;6.67;;;;;;;14.05;59.33;101090.98;1538410;93;21098;-65
2022/04/23 03:42:35;;;;;;;22.48;6.40;;;;;;;14.06;59.26;101082.20;1538539;93;21546;-66
2022/04/23 03:45:04;;;;;;;22.55;6.08;;;;;;;14.06;59.30;101076.98;1538400;93;21098;-66
2022/04/23 03:47:34;;;;;;;15.90;6.72;;;;;;;14.05;59.28;101090.98;1526486;93;21664;-66
2022/04/23 03:50:06;;;;;;;19.90;6.22;;;;;;;14.06;59.38;101086.58;1553279;90;21574;-66
2022/04/23 03:52:34;;;;;;;16.55;6.55;;;;;;;14.07;59.46;101078.70;1619188;88;21077;-67
2022/04/23 03:55:01;;;;;;;26.15;7.60;;;;;;;14.09;59.38;101069.05;1615082;88;21113;-64
2022/04/23 03:57:32;;;;;;;14.68;5.97;;;;;;;14.11;59.30;101097.77;1638911;85;21024;-66
2022/04/23 04:00:04;;;;;;;19.80;6.62;;;;;;;14.12;59.37;101114.73;1633509;86;21107;-66
2022/04/23 04:02:32;;;;;;;25.48;8.80;;;;;;;14.14;59.32;101107.69;1635237;86;21055;-64
2022/04/23 04:04:59;;;;;;;23.38;7.35;;;;;;;14.17;59.34;101100.20;1636355;86;21616;-66
2022/04/23 04:07:25;;;;;;;28.83;7.75;;;;;;;14.21;59.23;101091.34;1636706;86;21060;-66
2022/04/23 04:09:52;;;;;;;22.50;7.30;;;;;;;14.20;59.14;101093.10;1637303;86;21050;-66
2022/04/23 04:12:20;;;;;;;19.35;7.20;;;;;;;14.20;59.20;101094.89;1635900;86;21074;-66
2022/04/23 04:14:50;;;;;;;18.77;7.15;;;;;;;14.21;59.23;101101.81;1645063;86;21087;-66
2022/04/23 04:17:17;;;;;;;22.60;6.42;;;;;;;14.23;59.23;101093.02;1633615;86;21096;-66
2022/04/23 04:19:45;;;;;;;20.60;6.40;;;;;;;14.25;59.16;101091.21;1616889;86;21127;-66
2022/04/23 04:22:12;;;;;;;28.60;7.08;;;;;;;14.24;59.09;101082.94;1635671;86;21042;-66
2022/04/23 04:24:39;;;;;;;14.65;5.78;;;;;;;14.23;59.17;101053.76;1634383;87;21094;-67
2022/04/23 04:27:07;;;;;;;22.40;7.42;;;;;;;14.21;59.13;101045.10;1611324;87;21074;-65
2022/04/23 04:29:34;;;;;;;23.07;7.17;;;;;;;14.21;59.19;101062.56;1595949;88;21151;-66
2022/04/23 04:32:03;;;;;;;25.08;7.10;;;;;;;14.20;59.09;101069.55;1636703;86;21053;-66
2022/04/23 04:34:30;;;;;;;20.20;6.33;;;;;;;14.21;59.25;101079.12;1637336;86;21108;-66
2022/04/23 04:37:06;;;;;;;26.40;6.72;;;;;;;14.24;59.28;101094.72;1635869;87;21102;-64
2022/04/23 04:39:37;;;;;;;20.82;6.58;;;;;;;14.26;59.34;101089.45;1645220;86;21050;-64
2022/04/23 04:42:05;;;;;;;17.77;6.33;;;;;;;14.30;59.20;101076.23;1518924;94;21109;-64
2022/04/23 04:44:33;;;;;;;21.82;8.33;;;;;;;14.31;59.16;101070.55;1541968;92;21092;-64
2022/04/23 04:47:04;;;;;;;24.00;7.05;;;;;;;14.31;59.16;101071.42;1538836;92;21552;-64
2022/04/23 04:49:32;;;;;;;28.20;7.45;;;;;;;14.33;59.18;101080.52;1548120;92;21098;-65
2022/04/23 04:51:58;;;;;;;20.88;6.72;;;;;;;14.35;59.10;101074.34;1542868;92;21060;-64
2022/04/23 04:54:27;;;;;;;18.87;6.65;;;;;;;14.38;59.07;101063.78;1541760;92;21060;-64
2022/04/23 04:56:56;;;;;;;26.50;7.17;;;;;;;14.38;58.99;101057.23;1543082;92;21504;-64
2022/04/23 04:59:24;;;;;;;24.00;7.92;;;;;;;14.41;58.82;101058.43;1539567;92;21167;-64
2022/04/23 05:01:52;;;;;;;20.02;6.37;;;;;;;14.41;58.92;101061.05;1539559;92;21104;-65
2022/04/23 05:04:20;;;;;;;20.95;6.70;;;;;;;14.43;58.83;101066.23;1540888;92;21048;-64
2022/04/23 05:06:48;;;;;;;16.42;5.85;;;;;;;14.44;58.77;101063.58;1541234;92;21110;-64
2022/04/23 05:09:16;;;;;;;18.98;5.67;;;;;;;14.46;58.73;101073.55;1540469;92;21101;-64
2022/04/23 05:11:44;;;;;;;21.70;6.65;;;;;;;14.49;58.79;101065.58;1538770;92;21095;-64
2022/04/23 05:14:13;;;;;;;27.87;7.92;;;;;;;14.55;58.67;101061.89;1538346;92;21048;-65
2022/04/23 05:16:40;;;;;;;20.32;6.55;;;;;;;14.59;58.56;101056.51;1541304;92;21543;-64
2022/04/23 05:19:06;;;;;;;22.22;6.37;;;;;;;14.67;58.42;101056.27;1541227;92;21083;-64
2022/04/23 05:21:33;;;;;;;22.82;6.95;;;;;;;14.71;58.35;101058.33;1540280;92;21068;-64
2022/04/23 05:24:00;;;;;;;19.12;6.53;;;;;;;14.75;58.14;101049.45;1539073;92;21072;-64
2022/04/23 05:26:27;;;;;;;21.15;6.37;;;;;;;14.82;57.94;101043.11;1538857;91;21104;-64
2022/04/23 05:28:55;;;;;;;19.32;6.00;;;;;;;14.88;57.77;101045.04;1538433;92;21072;-64
2022/04/23 05:31:23;;;;;;;21.75;7.22;;;;;;;14.94;57.69;101040.06;1534062;92;21129;-65
2022/04/23 05:33:51;;;;;;;17.07;6.17;;;;;;;15.00;57.41;101024.13;1540204;92;21588;-65
2022/04/23 05:36:18;;;;;;;31.25;7.75;;;;;;;15.09;57.21;101047.36;1538798;92;21040;-65
2022/04/23 05:38:46;;;;;;;26.27;7.72;;;;;;;15.14;57.00;101049.38;1571856;87;21079;-65
2022/04/23 05:41:13;;;;;;;15.05;5.97;;;;;;;15.20;56.83;101066.20;1628189;87;21068;-65
2022/04/23 05:43:41;;;;;;;20.82;6.10;;;;;;;15.25;56.55;101055.94;1596510;89;21085;-65
2022/04/23 05:46:09;;;;;;;16.40;6.00;;;;;;;15.32;56.26;101063.99;1596493;88;21082;-65
2022/04/23 05:48:37;;;;;;;22.20;6.50;;;;;;;15.37;56.18;101052.03;1598158;88;21165;-65
2022/04/23 05:51:05;;;;;;;16.45;5.78;;;;;;;15.42;55.83;101031.72;1630383;87;21052;-65
2022/04/23 05:53:33;;;;;;;17.15;5.78;;;;;;;15.46;55.57;101021.55;1630616;87;21052;-65
2022/04/23 05:56:02;;;;;;;10.28;4.78;;;;;;;15.48;55.31;101019.72;1629957;87;21036;-65
2022/04/23 05:58:30;;;;;;;16.67;5.60;;;;;;;15.46;55.30;101037.28;1636772;86;21034;-65
2022/04/23 06:00:57;;;;;;;18.52;5.28;;;;;;;15.45;55.39;101056.12;1633390;86;21083;-65
2022/04/23 06:03:24;;;;;;;16.15;5.40;;;;;;;15.49;55.25;101034.56;1603582;87;21086;-64
2022/04/23 06:05:52;;;;;;;15.58;5.55;;;;;;;15.52;55.06;101017.87;1605554;88;21096;-63
2022/04/23 06:08:20;;;;;;;16.60;5.55;;;;;;;15.54;54.92;101012.94;1635782;87;21562;-65
2022/04/23 06:10:47;;;;;;;14.83;5.45;;;;;;;15.54;54.84;101006.37;1633877;86;21115;-63
2022/04/23 06:13:15;;;;;;;24.20;6.28;;;;;;;15.53;54.83;101017.80;1630345;86;21107;-64
2022/04/23 06:15:43;;;;;;;15.53;6.08;;;;;;;15.51;54.83;101015.69;1636615;86;21091;-65
2022/04/23 06:18:11;;;;;;;19.73;7.42;;;;;;;15.50;54.79;101010.03;1636156;86;21536;-64
2022/04/23 06:20:38;;;;;;;15.32;4.97;;;;;;;15.49;54.80;101003.09;1636066;86;21074;-64
2022/04/23 06:23:07;;;;;;;16.80;5.80;;;;;;;15.50;54.69;100992.98;1636451;86;20999;-62
2022/04/23 06:25:35;;;;;;;15.83;5.87;;;;;;;15.51;54.61;100990.78;1637404;86;21039;-64
2022/04/23 06:28:04;;;;;;;16.55;5.37;;;;;;;15.53;54.56;100974.97;1603105;89;21102;-63
2022/04/23 06:30:32;;;;;;;16.35;6.65;;;;;;;15.53;54.54;100977.59;1613619;87;21019;-63
2022/04/23 06:33:00;;;;;;;12.88;4.78;;;;;;;15.53;54.53;100982.39;1613345;87;21068;-64
2022/04/23 06:35:27;;;;;;;14.65;5.12;;;;;;;15.54;54.45;100993.27;1602310;87;21098;-63
2022/04/23 06:37:54;;;;;;;12.07;5.05;;;;;;;15.54;54.34;100969.66;1605860;89;21062;-64
2022/04/23 06:40:20;;;;;;;13.78;5.08;;;;;;;15.54;54.34;100990.64;1610676;87;21114;-63
2022/04/23 06:42:48;;;;;;;11.45;4.83;;;;;;;15.52;54.29;100991.16;1605171;87;21070;-64
2022/04/23 06:45:17;;;;;;;16.27;5.20;;;;;;;15.50;54.22;100993.47;1594324;88;21122;-64
2022/04/23 06:47:47;;;;;;;12.70;5.25;;;;;;;15.46;54.24;101016.30;1633445;86;21528;-63
2022/04/23 06:50:14;;;;;;;14.33;5.92;;;;;;;15.44;54.37;100994.08;1633642;86;21081;-64
2022/04/23 06:52:41;;;;;;;17.32;5.67;;;;;;;15.44;54.34;100989.28;1642183;86;21101;-63
2022/04/23 06:55:09;;;;;;;19.45;4.80;;;;;;;15.44;54.54;101001.09;1634368;86;21054;-63
2022/04/23 06:57:44;;;;;;;20.12;5.78;;;;;;;15.44;54.44;100992.77;1637392;87;21058;-63
2022/04/23 07:00:13;;;;;;;14.90;5.62;;;;;;;15.45;54.43;100983.14;1646524;85;21134;-63
2022/04/23 07:02:41;;;;;;;13.03;4.72;;;;;;;15.44;54.44;100981.42;1643439;85;21050;-63
2022/04/23 07:05:09;;;;;;;15.35;4.87;;;;;;;15.44;54.43;100978.80;1642914;85;21635;-64
2022/04/23 07:07:36;;;;;;;9.90;4.17;;;;;;;15.43;54.46;100977.10;1644919;87;21018;-64
2022/04/23 07:10:04;;;;;;;13.30;4.65;;;;;;;15.40;54.36;100978.48;1617410;87;21069;-64
2022/04/23 07:12:33;;;;;;;12.43;5.00;;;;;;;15.37;54.42;100979.92;1611950;87;21527;-64
2022/04/23 07:15:00;;;;;;;12.88;5.00;;;;;;;15.35;54.51;100987.00;1642336;85;21534;-64
2022/04/23 07:17:29;;;;;;;10.40;4.33;;;;;;;15.32;54.50;100983.16;1620331;87;21619;-64
2022/04/23 07:19:56;;;;;;;19.00;5.78;;;;;;;15.29;54.54;100985.91;1640380;85;21030;-64
2022/04/23 07:22:24;;;;;;;14.35;5.58;;;;;;;15.26;54.60;100989.95;1610317;87;21039;-64
2022/04/23 07:24:53;;;;;;;15.72;5.15;;;;;;;15.27;54.70;100992.98;1585633;90;21078;-64
2022/04/23 07:27:21;;;;;;;16.85;5.60;;;;;;;15.26;54.66;100982.08;1640336;85;21043;-63
2022/04/23 07:29:51;;;;;;;15.45;5.10;;;;;;;15.24;54.72;100966.87;1642591;85;21039;-64
2022/04/23 07:32:21;;;;;;;8.93;4.40;;;;;;;15.19;54.73;100947.38;1643093;85;21068;-64
2022/04/23 07:37:34;;;;;;;16.35;5.22;;;;;;;15.11;55.01;100947.25;1643558;85;21055;-64
2022/04/23 07:40:10;;;;;;;14.80;5.30;;;;;;;15.07;55.22;100955.70;1644249;85;21538;-64
2022/04/23 07:42:35;;;;;;;10.43;4.20;;;;;;;15.08;55.27;100956.56;1644752;85;21078;-64
2022/04/23 07:45:03;;;;;;;14.05;5.17;;;;;;;15.11;55.23;100960.36;1617265;87;21502;-65
2022/04/23 07:47:30;;;;;;;11.05;4.58;;;;;;;15.12;55.11;100959.02;1602861;88;21769;-65
2022/04/23 07:49:58;;;;;;;12.18;4.95;;;;;;;15.11;55.13;100940.70;1604923;87;21095;-64
2022/04/23 07:52:25;;;;;;;17.50;5.78;;;;;;;15.09;55.19;100943.84;1605548;88;21109;-65
2022/04/23 07:54:53;;;;;;;12.82;4.97;;;;;;;15.09;55.37;100960.88;1606155;88;21498;-65
2022/04/23 07:57:22;;;;;;;17.48;5.78;;;;;;;15.12;55.44;100979.98;1606325;88;21075;-66
2022/04/23 07:59:49;;;;;;;12.70;4.92;;;;;;;15.18;55.35;100977.14;1605010;88;21117;-66
2022/04/23 08:02:18;;;;;;;15.38;6.40;;;;;;;15.23;55.19;100979.56;1656008;85;21050;-66
2022/04/23 08:04:45;;;;;;;15.83;5.12;;;;;;;15.27;54.98;100974.63;1614491;87;21086;-66
2022/04/23 08:07:15;;;;;;;14.73;4.78;;;;;;;15.31;54.93;100976.23;1654798;85;20998;-66
2022/04/23 08:09:42;;;;;;;16.87;5.28;;;;;;;15.32;54.87;100985.34;1653221;85;21069;-64
2022/04/23 08:12:10;;;;;;;15.13;4.95;;;;;;;15.36;54.74;100987.38;1654726;85;21002;-64
2022/04/23 08:14:38;;;;;;;12.05;5.80;;;;;;;15.37;54.72;100975.99;1657127;85;21542;-64
2022/04/23 08:17:06;;;;;;;13.13;5.60;;;;;;;15.40;54.70;100982.42;1640019;85;21100;-64
2022/04/23 08:19:35;;;;;;;17.12;6.35;;;;;;;15.41;54.83;100989.39;1664716;85;21046;-64
2022/04/23 08:22:02;;;;;;;12.80;4.92;;;;;;;15.43;54.98;100994.15;1620227;87;21054;-65
2022/04/23 08:24:31;;;;;;;16.65;5.97;;;;;;;15.48;54.96;101001.37;1653670;85;21018;-67
2022/04/23 08:26:57;;;;;;;16.85;5.22;;;;;;;15.51;54.96;100994.70;1620100;87;21548;-65
2022/04/23 08:32:10;;;;;;;19.20;5.33;;;;;;;15.60;54.79;100979.91;1659745;85;21120;-66
2022/04/23 08:34:37;;;;;;;18.48;4.78;;;;;;;15.62;54.71;100974.15;1636663;85;21558;-65
2022/04/23 08:37:04;;;;;;;16.65;6.33;;;;;;;15.61;54.62;100965.90;1606351;87;21086;-66
2022/04/23 08:39:33;;;;;;;14.90;5.00;;;;;;;15.61;54.63;100969.83;1614445;87;21053;-65
2022/04/23 08:42:01;;;;;;;13.58;4.90;;;;;;;15.60;54.64;100952.37;1644431;85;21025;-66
2022/04/23 08:44:28;;;;;;;13.43;5.12;;;;;;;15.59;54.68;100959.00;1669820;85;20995;-66
2022/04/23 08:46:55;;;;;;;16.17;6.12;;;;;;;15.60;54.69;100966.80;1652360;85;21523;-66
2022/04/23 08:49:32;;;;;;;18.70;5.50;;;;;;;15.63;54.81;100969.31;1657096;85;21038;-66
2022/04/23 08:52:16;;;;;;;15.70;5.10;;;;;;;15.68;54.75;100984.88;1589124;88;21063;-68
2022/04/23 08:54:44;;;;;;;15.58;5.37;;;;;;;15.74;54.60;100976.32;1584850;89;21049;-66
2022/04/23 08:57:11;;;;;;;14.80;5.47;;;;;;;15.80;54.43;100980.02;1584179;89;21183;-67
2022/04/23 08:59:38;;;;;;;9.70;4.70;;;;;;;15.84;54.32;100964.99;1591522;89;21155;-67
2022/04/23 09:02:12;;;;;;;13.95;4.20;;;;;;;15.87;54.30;100954.36;1591298;89;21627;-67
2022/04/23 09:04:40;;;;;;;14.20;4.78;;;;;;;15.90;54.22;100933.25;1573025;90;21731;-67
2022/04/23 09:07:18;;;;;;;14.78;5.17;;;;;;;15.94;54.03;100930.91;1572701;90;21652;-64
2022/04/23 09:09:52;;;;;;;21.20;6.15;;;;;;;15.95;54.00;100935.25;1524523;93;21092;-65
2022/04/23 09:12:23;;;;;;;19.00;5.75;;;;;;;15.94;54.16;100941.40;1495987;95;21498;-66
2022/04/23 09:14:49;;;;;;;18.60;6.25;;;;;;;15.94;54.17;100942.26;1492648;95;21125;-66
2022/04/23 09:25:45;;;;;;;17.52;6.62;;;;;;;16.08;54.02;100964.00;1497306;94;21009;-66
2022/04/23 09:28:19;;;;;;;31.73;6.70;;;;;;;16.12;54.29;100970.38;1493757;95;21103;-66
2022/04/23 09:30:48;;;;;;;19.48;6.33;;;;;;;16.21;54.21;100960.82;1493163;95;21077;-65
2022/04/23 09:33:15;;;;;;;28.27;6.35;;;;;;;16.30;54.28;100982.73;1493405;95;21093;-66
2022/04/23 09:35:58;;;;;;;15.35;5.72;;;;;;;16.40;54.15;100983.23;1487001;95;21090;-65
2022/04/23 09:38:28;;;;;;;21.57;7.45;;;;;;;16.51;53.95;100974.45;1487931;95;21116;-66
2022/04/23 09:41:15;;;;;;;22.30;6.37;;;;;;;16.59;53.48;100958.38;1490248;95;21149;-65
2022/04/23 09:43:31;;;;;;;18.70;6.92;;;;;;;16.63;53.43;100962.59;1494383;93;21574;-65
2022/04/23 09:46:10;;;;;;;16.65;5.95;;;;;;;16.66;53.42;100965.06;1493948;95;21045;-65
2022/04/23 09:48:39;;;;;;;18.23;6.00;;;;;;;16.69;53.37;100957.06;1533104;90;21094;-67
2022/04/23 09:51:26;;;;;;;21.00;6.47;;;;;;;16.73;53.20;100956.00;1559234;90;21090;-66
2022/04/23 09:53:54;;;;;;;15.50;6.10;;;;;;;16.77;53.10;100960.20;1566982;90;21542;-66
2022/04/23 09:56:25;;;;;;;29.45;8.70;;;;;;;16.84;53.10;100960.31;1561173;90;21554;-66
2022/04/23 09:58:52;;;;;;;21.75;6.12;;;;;;;16.91;52.89;100955.19;1540711;91;21620;-66
2022/04/23 10:01:22;;;;;;;17.55;7.10;;;;;;;16.98;52.79;100951.38;1559470;89;21070;-65
2022/04/23 10:03:52;;;;;;;19.70;6.40;;;;;;;17.02;52.44;100945.89;1571821;89;21661;-64
2022/04/23 10:06:22;;;;;;;19.67;5.92;;;;;;;17.04;52.38;100945.84;1574242;89;21109;-64
2022/04/23 10:08:58;;;;;;;25.45;7.33;;;;;;;17.03;52.28;100954.19;1584935;89;21554;-65
2022/04/23 10:11:30;;;;;;;19.20;7.17;;;;;;;17.01;52.16;100957.80;1613541;88;21518;-65
2022/04/23 10:14:04;;;;;;;26.90;6.97;;;;;;;16.99;52.25;100953.06;1602114;88;21090;-65
2022/04/23 10:16:33;;;;;;;21.77;7.00;;;;;;;16.97;52.30;100945.72;1613505;88;21111;-65
2022/04/23 10:19:02;;;;;;;19.27;6.05;;;;;;;16.96;52.16;100950.59;1600047;88;21500;-65
2022/04/23 10:21:41;;;;;;;24.47;7.03;;;;;;;16.95;52.14;100946.24;1604886;88;21147;-65
2022/04/23 10:24:25;;;;;;;17.80;6.62;;;;;;;16.91;52.36;100942.91;1601039;88;21093;-66
2022/04/23 10:26:59;;;;;;;16.87;6.53;;;;;;;16.91;52.41;100940.28;1547854;92;21140;-65
2022/04/23 10:29:27;;;;;;;17.73;6.35;;;;;;;16.91;52.36;100934.16;1544255;92;21071;-66
2022/04/23 10:32:19;;;;;;;16.27;5.20;;;;;;;16.91;52.43;100930.22;1546243;92;21102;-66
2022/04/23 10:34:47;;;;;;;20.70;5.85;;;;;;;16.90;52.33;100935.06;1546386;92;21110;-64
2022/04/23 10:37:27;;;;;;;14.85;5.17;;;;;;;16.89;52.50;100941.27;1553098;92;21102;-65
2022/04/23 10:39:59;;;;;;;28.47;7.37;;;;;;;16.87;52.65;100943.11;1520224;94;21116;-66
2022/04/23 10:42:28;;;;;;;29.15;6.62;;;;;;;16.86;52.74;100944.02;1506331;94;21141;-66
2022/04/23 10:44:56;;;;;;;21.90;6.12;;;;;;;16.87;52.66;100938.71;1516145;94;21592;-66
2022/04/23 10:47:36;;;;;;;19.15;6.40;;;;;;;16.89;52.60;100938.63;1515696;94;21080;-66
2022/04/23 10:50:22;;;;;;;19.90;6.20;;;;;;;16.90;52.58;100940.33;1486746;96;21069;-67
2022/04/23 10:52:51;;;;;;;25.68;7.22;;;;;;;16.92;52.66;100939.80;1490311;95;21695;-67
2022/04/23 10:55:18;;;;;;;23.42;6.65;;;;;;;16.92;52.63;100938.48;1468593;97;21111;-68
2022/04/23 10:57:53;;;;;;;24.05;8.40;;;;;;;16.92;52.50;100941.11;1488212;96;21386;-67
2022/04/23 11:00:24;;;;;;;25.85;7.50;;;;;;;16.92;52.59;100941.11;1480116;95;21224;-67
2022/04/23 11:02:57;;;;;;;23.25;6.72;;;;;;;16.92;52.42;100940.66;1479773;96;21144;-67
2022/04/23 11:14:28;;;;;;;27.85;6.95;;;;;;;16.76;52.50;100923.01;1474993;96;21168;-66
2022/04/23 11:16:56;;;;;;;17.82;6.50;;;;;;;16.69;52.63;100917.65;1486463;95;21053;-66
2022/04/23 11:19:25;;;;;;;23.70;6.08;;;;;;;16.62;52.84;100921.00;1477392;94;21070;-67
2022/04/23 11:21:52;;;;;;;19.30;6.17;;;;;;;16.57;52.93;100908.52;1505327;94;21109;-67
2022/04/23 11:24:19;;;;;;;21.60;6.60;;;;;;;16.53;52.92;100911.33;1523713;92;21087;-67
2022/04/23 11:26:47;;;;;;;18.20;6.30;;;;;;;16.48;53.16;100918.55;1533320;92;21113;-67
2022/04/23 11:29:16;;;;;;;14.98;5.25;;;;;;;16.46;53.35;100920.38;1530176;92;21648;-67
2022/04/23 11:31:52;;;;;;;16.77;5.70;;;;;;;16.45;53.28;100913.41;1527415;92;21025;-67
2022/04/23 11:34:21;;;;;;;17.82;5.25;;;;;;;16.45;53.22;100902.91;1511260;93;21088;-66
2022/04/23 11:36:47;;;;;;;17.90;6.15;;;;;;;16.45;53.00;100897.65;1551829;89;21129;-66
2022/04/23 11:39:16;;;;;;;14.70;5.30;;;;;;;16.42;53.12;100888.16;1582655;89;21541;-67
2022/04/23 11:41:49;;;;;;;18.20;6.05;;;;;;;16.38;53.19;100889.20;1584986;89;21060;-67
2022/04/23 11:47:06;;;;;;;19.00;6.30;;;;;;;16.28;53.39;100904.48;1581902;89;21063;-68
2022/04/23 11:49:33;;;;;;;11.33;4.95;;;;;;;16.23;53.56;100906.47;1577146;89;21034;-67
2022/04/23 11:54:45;;;;;;;21.17;6.50;;;;;;;16.17;53.54;100885.73;1579895;89;21642;-64
2022/04/23 11:57:14;;;;;;;16.02;5.72;;;;;;;16.12;53.56;100882.44;1550209;91;21062;-64